createdAt,value
2023-04-22T00:02:42.324Z,96520.56
2023-04-22T00:06:42.859Z,96523.53
2023-04-22T00:10:43.438Z,96509.94
2023-04-22T00:14:46.755Z,96535.56
2023-04-22T00:18:47.385Z,96528.59
2023-04-22T00:22:47.844Z,96528.34
2023-04-22T00:26:49.514Z,96527.28
2023-04-22T00:30:52.822Z,96514.75
2023-04-22T00:34:53.448Z,96513.94
2023-04-22T00:38:54.926Z,96519.00
2023-04-22T00:42:56.372Z,96523.25
2023-04-22T00:47:00.775Z,96527.81
2023-04-22T00:51:01.452Z,96525.41
2023-04-22T00:55:01.912Z,96529.66
2023-04-22T00:59:03.252Z,96531.28
2023-04-22T01:03:09.501Z,96520.88
2023-04-22T01:07:10.149Z,96522.22
2023-04-22T01:11:11.051Z,96527.56
2023-04-22T01:15:13.484Z,96525.41
2023-04-22T01:19:17.770Z,96528.88
2023-04-22T01:23:23.832Z,96526.75
2023-04-22T01:27:24.729Z,96528.63
2023-04-22T01:31:25.407Z,96529.13
2023-04-22T01:35:25.953Z,96541.13
2023-04-22T01:39:29.830Z,96532.31
2023-04-22T01:43:30.948Z,96534.97
2023-04-22T01:47:31.427Z,96532.31
2023-04-22T01:51:32.646Z,96536.03
2023-04-22T01:55:37.544Z,96525.91
2023-04-22T01:59:38.310Z,96526.88
2023-04-22T02:03:39.515Z,96527.91
2023-04-22T02:07:40.497Z,96530.06
2023-04-22T02:11:44.070Z,96528.34
2023-04-22T02:15:45.580Z,96534.75
2023-04-22T02:19:46.174Z,96529.41
2023-04-22T02:23:46.827Z,96518.22
2023-04-22T02:27:50.303Z,96521.94
2023-04-22T02:31:50.970Z,96509.44
2023-04-22T02:35:51.466Z,96516.66
2023-04-22T02:39:52.652Z,96529.41
2023-04-22T02:43:56.265Z,96534.50
2023-04-22T02:47:56.734Z,96529.19
2023-04-22T02:51:57.274Z,96517.13
2023-04-22T02:55:58.730Z,96512.78
2023-04-22T03:00:02.337Z,96520.25
2023-04-22T03:04:03.228Z,96515.72
2023-04-22T03:08:03.817Z,96528.19
2023-04-22T03:12:05.399Z,96527.16
2023-04-22T03:16:10.144Z,96527.69
2023-04-22T03:20:12.981Z,96529.69
2023-04-22T03:24:13.586Z,96527.50
2023-04-22T03:28:20.903Z,96522.19
2023-04-22T03:32:24.371Z,96524.28
2023-04-22T03:36:35.024Z,96530.13
2023-04-22T03:40:35.729Z,96532.19
2023-04-22T03:44:43.042Z,96533.31
2023-04-22T03:48:46.759Z,96528.53
2023-04-22T03:52:57.440Z,96530.56
2023-04-22T03:56:58.435Z,96534.81
2023-04-22T04:01:00.038Z,96540.13
2023-04-22T04:05:05.919Z,96537.56
2023-04-22T04:09:06.794Z,96543.38
2023-04-22T04:13:08.552Z,96535.28
2023-04-22T04:17:21.954Z,96539.19
2023-04-22T04:21:25.210Z,96533.09
2023-04-22T04:25:26.815Z,96530.63
2023-04-22T04:29:28.431Z,96536.22
2023-04-22T04:33:42.673Z,96532.28
2023-04-22T04:37:47.697Z,96531.88
2023-04-22T04:41:49.210Z,96531.75
2023-04-22T04:45:50.850Z,96537.50
2023-04-22T04:49:58.872Z,96535.31
2023-04-22T04:54:02.636Z,96535.72
2023-04-22T04:58:09.665Z,96534.19
2023-04-22T05:02:11.226Z,96534.69
2023-04-22T05:06:13.770Z,96538.78
2023-04-22T05:10:22.802Z,96543.91
2023-04-22T05:14:23.429Z,96538.03
2023-04-22T05:18:26.752Z,96533.84
2023-04-22T05:22:28.590Z,96531.22
2023-04-22T05:26:32.225Z,96538.06
2023-04-22T05:30:35.129Z,96536.84
2023-04-22T05:34:35.946Z,96542.09
2023-04-22T05:38:36.677Z,96553.91
2023-04-22T05:42:40.010Z,96556.59
2023-04-22T05:46:40.867Z,96552.16
2023-04-22T05:50:41.618Z,96548.22
2023-04-22T05:54:42.795Z,96569.09
2023-04-22T05:58:47.687Z,96569.09
2023-04-22T06:02:52.309Z,96564.34
2023-04-22T06:06:54.180Z,96551.28
2023-04-22T06:10:54.843Z,96541.97
2023-04-22T06:15:00.266Z,96551.84
2023-04-22T06:19:01.202Z,96559.56
2023-04-22T06:23:02.385Z,96554.78
2023-04-22T06:27:03.354Z,96560.59
2023-04-22T06:31:07.057Z,96565.84
2023-04-22T06:35:08.708Z,96555.31
2023-04-22T06:39:11.337Z,96557.66
2023-04-22T06:43:49.936Z,96564.06
2023-04-22T06:48:27.693Z,96561.13
2023-04-22T06:52:54.183Z,96566.00
2023-04-22T06:56:54.609Z,96553.16
2023-04-22T07:00:54.936Z,96567.31
2023-04-22T07:04:57.996Z,96538.34
2023-04-22T07:08:58.228Z,96562.81
2023-04-22T07:12:58.583Z,96540.81
2023-04-22T07:16:58.978Z,96549.38
2023-04-22T07:21:01.984Z,96551.34
2023-04-22T07:25:02.263Z,96553.06
2023-04-22T07:29:02.845Z,96543.63
2023-04-22T07:33:03.100Z,96530.09
2023-04-22T07:37:07.475Z,96521.03
2023-04-22T07:41:08.034Z,96536.56
2023-04-22T07:45:10.349Z,96530.00
2023-04-22T07:49:10.675Z,96521.59
2023-04-22T07:53:15.689Z,96518.03
2023-04-22T07:57:15.944Z,96517.66
2023-04-22T08:01:19.869Z,96517.22
2023-04-22T08:05:20.663Z,96511.13
2023-04-22T08:09:23.628Z,96517.16
2023-04-22T08:13:23.918Z,96503.97
2023-04-22T08:17:24.105Z,96521.84
2023-04-22T08:21:24.248Z,96516.59
2023-04-22T08:25:27.028Z,96508.84
2023-04-22T08:29:27.808Z,96511.28
2023-04-22T08:33:28.365Z,96508.72
2023-04-22T08:37:29.069Z,96498.50
2023-04-22T08:41:33.556Z,96517.22
2023-04-22T08:45:34.940Z,96505.16
2023-04-22T08:49:38.992Z,96512.09
2023-04-22T08:53:39.424Z,96520.72
2023-04-22T08:57:44.013Z,96516.13
2023-04-22T09:01:45.736Z,96504.94
2023-04-22T09:05:48.343Z,96503.06
2023-04-22T09:09:49.024Z,96488.50
2023-04-22T09:13:51.747Z,96487.53
2023-04-22T09:17:55.203Z,96486.41
2023-04-22T09:21:56.201Z,96501.28
2023-04-22T09:25:59.702Z,96491.28
2023-04-22T09:30:02.566Z,96498.63
2023-04-22T09:34:03.679Z,96499.75
2023-04-22T09:38:08.310Z,96479.66
2023-04-22T09:42:08.948Z,96477.53
2023-04-22T09:46:13.557Z,96488.19
2023-04-22T09:50:15.211Z,96485.84
2023-04-22T09:54:15.603Z,96483.69
2023-04-22T09:58:18.323Z,96475.59
2023-04-22T10:02:21.375Z,96471.63
2023-04-22T10:06:21.669Z,96468.59
2023-04-22T10:10:21.936Z,96454.06
2023-04-22T10:14:22.212Z,96458.91
2023-04-22T10:18:29.345Z,96435.66
2023-04-22T10:22:31.617Z,96455.25
2023-04-22T10:26:53.780Z,96447.88
2023-04-22T10:30:55.440Z,96453.28
2023-04-22T10:35:13.372Z,96453.13
2023-04-22T10:39:22.382Z,96443.88
2023-04-22T10:43:23.495Z,96438.50
2023-04-22T10:47:32.181Z,96447.03
2023-04-22T10:51:45.868Z,96443.53
2023-04-22T10:55:56.407Z,96425.44
2023-04-22T11:00:01.064Z,96430.78
2023-04-22T11:04:23.871Z,96422.63
2023-04-22T11:08:31.609Z,96418.34
2023-04-22T11:12:47.944Z,96409.31
2023-04-22T11:16:50.946Z,96413.84
2023-04-22T11:20:53.781Z,96405.59
2023-04-22T11:25:01.351Z,96408.53
2023-04-22T11:29:03.314Z,96405.63
2023-04-22T11:33:04.049Z,96409.19
2023-04-22T11:37:04.357Z,96399.41
2023-04-22T11:41:07.482Z,96394.13
2023-04-22T11:45:10.667Z,96397.28
2023-04-22T11:49:19.789Z,96390.59
2023-04-22T11:53:24.329Z,96384.75
2023-04-22T11:57:27.135Z,96390.28
2023-04-22T12:01:27.289Z,96376.88
2023-04-22T12:05:43.397Z,96392.72
2023-04-22T12:09:43.592Z,96376.66
2023-04-22T12:13:50.872Z,96370.50
2023-04-22T12:17:54.099Z,96368.66
2023-04-22T12:21:58.296Z,96358.13
2023-04-22T12:25:58.582Z,96363.97
2023-04-22T12:30:01.822Z,96362.88
2023-04-22T12:34:02.432Z,96360.16
2023-04-22T12:38:02.700Z,96350.72
2023-04-22T12:42:02.886Z,96348.00
2023-04-22T12:46:06.780Z,96356.25
2023-04-22T12:50:09.186Z,96349.56
2023-04-22T12:54:10.818Z,96354.31
2023-04-22T12:58:11.484Z,96347.94
2023-04-22T13:02:14.380Z,96331.22
2023-04-22T13:06:14.982Z,96331.16
2023-04-22T13:10:18.156Z,96330.13
2023-04-22T13:14:18.395Z,96325.91
2023-04-22T13:18:21.335Z,96320.03
2023-04-22T13:22:22.004Z,96309.56
2023-04-22T13:26:22.533Z,96304.00
2023-04-22T13:30:22.913Z,96289.31
2023-04-22T13:34:25.896Z,96288.75
2023-04-22T13:38:26.546Z,96287.16
2023-04-22T13:42:27.094Z,96282.06
2023-04-22T13:46:28.331Z,96273.44
2023-04-22T13:50:31.321Z,96276.41
2023-04-22T13:54:31.652Z,96278.13
2023-04-22T13:58:32.438Z,96252.34
2023-04-22T14:02:32.722Z,96271.06
2023-04-22T14:06:35.982Z,96269.13
2023-04-22T14:10:36.223Z,96256.13
2023-04-22T14:14:36.789Z,96243.38
2023-04-22T14:18:38.716Z,96249.09
2023-04-22T14:22:41.620Z,96245.06
2023-04-22T14:26:41.854Z,96231.72
2023-04-22T14:30:42.381Z,96236.81
2023-04-22T14:34:42.757Z,96239.69
2023-04-22T14:38:45.841Z,96233.94
2023-04-22T14:42:46.355Z,96231.91
2023-04-22T14:46:46.658Z,96215.97
2023-04-22T14:50:47.104Z,96226.50
2023-04-22T14:54:51.927Z,96229.78
2023-04-22T14:58:52.318Z,96221.50
2023-04-22T15:02:54.025Z,96227.50
2023-04-22T15:06:57.696Z,96225.34
2023-04-22T15:11:00.547Z,96216.09
2023-04-22T15:15:00.684Z,96237.03
2023-04-22T15:19:00.882Z,96232.22
2023-04-22T15:23:01.027Z,96222.38
2023-04-22T15:27:04.552Z,96213.66
2023-04-22T15:31:05.703Z,96209.41
2023-04-22T15:35:06.353Z,96224.69
2023-04-22T15:39:10.845Z,96216.47
2023-04-22T15:43:13.737Z,96214.94
2023-04-22T15:47:14.225Z,96214.22
2023-04-22T15:51:14.405Z,96214.75
2023-04-22T15:55:15.198Z,96197.56
2023-04-22T15:59:18.051Z,96210.59
2023-04-22T16:03:18.318Z,96221.69
2023-04-22T16:07:18.559Z,96211.94
2023-04-22T16:11:19.146Z,96198.09
2023-04-22T16:15:23.744Z,96210.94
2023-04-22T16:19:23.914Z,96200.38
2023-04-22T16:23:24.038Z,96206.09
2023-04-22T16:27:26.948Z,96194.81
2023-04-22T16:31:29.762Z,96204.72
2023-04-22T16:35:30.053Z,96200.38
2023-04-22T16:39:30.392Z,96201.50
2023-04-22T16:43:30.570Z,96204.16
2023-04-22T16:47:33.452Z,96208.41
2023-04-22T16:51:33.703Z,96201.97
2023-04-22T16:55:36.311Z,96178.91
2023-04-22T16:59:37.535Z,96199.66
2023-04-22T17:03:40.931Z,96194.69
2023-04-22T17:07:41.627Z,96197.63
2023-04-22T17:11:42.636Z,96190.13
2023-04-22T17:15:43.548Z,96199.84
2023-04-22T17:19:46.593Z,96202.00
2023-04-22T17:23:46.888Z,96197.72
2023-04-22T17:27:47.055Z,96196.78
2023-04-22T17:31:47.366Z,96206.78
2023-04-22T17:35:50.296Z,96196.91
2023-04-22T17:39:50.507Z,96197.78
2023-04-22T17:43:52.793Z,96204.81
2023-04-22T17:47:52.979Z,96200.13
2023-04-22T17:51:56.271Z,96193.41
2023-04-22T17:55:56.545Z,96200.13
2023-04-22T17:59:56.875Z,96194.47
2023-04-22T18:03:57.190Z,96183.31
2023-04-22T18:08:02.688Z,96180.03
2023-04-22T18:12:03.387Z,96207.06
2023-04-22T18:16:03.616Z,96193.72
2023-04-22T18:20:16.686Z,96211.56
2023-04-22T18:24:20.738Z,96223.06
2023-04-22T18:28:20.909Z,96215.69
2023-04-22T18:32:21.279Z,96225.88
2023-04-22T18:36:21.674Z,96185.53
2023-04-22T18:40:25.081Z,96208.91
2023-04-22T18:44:25.539Z,96226.19
2023-04-22T18:48:26.148Z,96232.72
2023-04-22T18:52:26.709Z,96237.00
2023-04-22T18:56:30.253Z,96246.88
2023-04-22T19:00:31.277Z,96230.00
2023-04-22T19:04:32.362Z,96254.69
2023-04-22T19:08:32.854Z,96243.75
2023-04-22T19:23:53.853Z,96246.69
2023-04-22T19:27:56.238Z,96254.16
2023-04-22T19:31:59.217Z,96251.66
2023-04-22T19:36:04.042Z,96254.94
2023-04-22T19:40:10.494Z,96260.78
2023-04-22T19:44:13.810Z,96263.00
2023-04-22T19:48:19.119Z,96259.78
2023-04-22T19:52:25.682Z,96254.81
2023-04-22T19:56:30.586Z,96265.81
2023-04-22T20:00:36.362Z,96266.94
2023-04-22T20:04:39.946Z,96257.22
2023-04-22T20:08:44.523Z,96271.03
2023-04-22T20:12:49.672Z,96271.09
2023-04-22T20:16:52.387Z,96272.72
2023-04-22T20:20:57.844Z,96265.06
2023-04-22T20:25:07.958Z,96279.34
2023-04-22T20:29:13.277Z,96277.09
2023-04-22T20:33:18.762Z,96285.03
2023-04-22T20:37:27.579Z,96286.06
2023-04-22T20:41:30.966Z,96284.50
2023-04-22T20:45:35.258Z,96264.34
2023-04-22T20:49:41.824Z,96260.56
2023-04-22T20:53:44.539Z,96273.69
2023-04-22T20:57:46.008Z,96281.97
2023-04-22T21:01:51.892Z,96279.75
2023-04-22T21:05:54.422Z,96300.38
2023-04-22T21:09:56.768Z,96291.00
2023-04-22T21:13:59.235Z,96273.06
2023-04-22T21:18:03.898Z,96301.19
2023-04-22T21:22:09.431Z,96304.84
2023-04-22T21:26:12.470Z,96323.50
2023-04-22T21:30:15.740Z,96323.63
2023-04-22T21:34:18.814Z,96326.16
2023-04-22T21:38:20.149Z,96340.00
2023-04-22T21:42:22.838Z,96344.91
2023-04-22T21:46:24.786Z,96339.09
2023-04-22T21:50:30.509Z,96332.66
2023-04-22T21:54:31.041Z,96310.41
2023-04-22T21:58:31.840Z,96310.22
2023-04-22T22:02:32.695Z,96298.38
2023-04-22T22:06:36.765Z,96279.88
2023-04-22T22:10:37.842Z,96284.56
2023-04-22T22:14:38.843Z,96278.19
2023-04-22T22:18:40.200Z,96313.69
2023-04-22T22:22:45.277Z,96310.91
2023-04-22T22:26:45.869Z,96341.19
2023-04-22T22:30:46.563Z,96327.16
2023-04-22T22:34:47.115Z,96319.06
2023-04-22T22:38:51.007Z,96315.72
2023-04-22T22:42:51.515Z,96312.06
2023-04-22T22:46:52.283Z,96312.53
2023-04-22T22:50:53.216Z,96322.13
2023-04-22T22:54:56.532Z,96325.31
2023-04-22T22:58:57.068Z,96327.50
2023-04-22T23:02:58.236Z,96329.34
2023-04-22T23:06:59.142Z,96320.56
2023-04-22T23:11:02.674Z,96331.97
2023-04-22T23:15:05.144Z,96338.97
2023-04-22T23:19:10.675Z,96343.69
2023-04-22T23:23:14.249Z,96346.50
2023-04-22T23:27:18.746Z,96329.47
2023-04-22T23:31:24.244Z,96333.59
2023-04-22T23:35:27.449Z,96301.56
2023-04-22T23:39:28.330Z,96274.63
2023-04-22T23:43:33.411Z,96251.69
2023-04-22T23:47:34.304Z,96266.13
2023-04-22T23:51:35.463Z,96275.34
2023-04-22T23:55:37.345Z,96268.94
2023-04-22T23:59:42.716Z,96259.03
